Time,TemperatureF,DewpointF,PressureIn,WindDirection,WindDirectionDegrees,WindSpeedMPH,WindSpeedGustMPH,Humidity,HourlyPrecipIn,Conditions,Clouds,dailyrainin,SoftwareType,DateUTC
2013-07-31 00:00:00,73.2,72.0,29.99,SE,146,0.0,3.0,96,0.00,,,0.00,Wunderground v.1.15,2013-07-31 05:00:00,
2013-07-31 00:05:00,73.2,72.0,29.99,SE,146,0.0,3.0,96,0.00,,,0.00,Wunderground v.1.15,2013-07-31 05:05:00,
2013-07-31 00:10:00,73.0,71.8,29.99,SE,146,0.0,3.0,96,0.00,,,0.00,Wunderground v.1.15,2013-07-31 05:10:00,
2013-07-31 00:15:00,73.0,71.8,29.99,SE,146,0.0,3.0,96,0.00,,,0.00,Wunderground v.1.15,2013-07-31 05:15:00,
2013-07-31 00:20:00,73.0,71.8,29.98,SE,146,0.0,3.0,96,0.00,,,0.00,Wunderground v.1.15,2013-07-31 05:20:00,
2013-07-31 00:25:00,72.8,71.6,29.98,SE,146,0.0,3.0,96,0.00,,,0.00,Wunderground v.1.15,2013-07-31 05:25:00,
2013-07-31 00:30:00,72.8,71.6,29.98,SE,146,0.0,3.0,96,0.00,,,0.00,Wunderground v.1.15,2013-07-31 05:30:00,
2013-07-31 00:35:00,72.8,71.6,29.97,SE,146,0.0,3.0,96,0.00,,,0.00,Wunderground v.1.15,2013-07-31 05:35:00,
2013-07-31 00:40:00,72.8,71.6,29.97,SE,146,0.0,3.0,96,0.00,,,0.00,Wunderground v.1.15,2013-07-31 05:40:00,
2013-07-31 00:45:00,73.0,71.8,29.97,SE,146,0.0,3.0,96,0.00,,,0.00,Wunderground v.1.15,2013-07-31 05:45:00,
2013-07-31 00:50:00,72.8,71.6,29.97,SE,146,0.0,3.0,96,0.00,,,0.00,Wunderground v.1.15,2013-07-31 05:50:00,
2013-07-31 00:55:00,72.7,71.5,29.97,SE,146,0.0,3.0,96,0.00,,,0.00,Wunderground v.1.15,2013-07-31 05:55:00,
2013-07-31 01:00:00,72.7,71.5,29.97,SE,146,0.0,3.0,96,0.00,,,0.00,Wunderground v.1.15,2013-07-31 06:00:00,
2013-07-31 01:05:00,72.5,71.3,29.97,SE,146,0.0,3.0,96,0.00,,,0.00,Wunderground v.1.15,2013-07-31 06:05:00,
2013-07-31 01:10:00,72.5,71.3,29.97,SE,146,0.0,3.0,96,0.00,,,0.00,Wunderground v.1.15,2013-07-31 06:10:00,
2013-07-31 01:15:00,72.3,71.1,29.97,SE,146,0.0,3.0,96,0.00,,,0.00,Wunderground v.1.15,2013-07-31 06:15:00,
2013-07-31 01:20:00,72.5,71.3,29.97,SE,146,0.0,3.0,96,0.00,,,0.00,Wunderground v.1.15,2013-07-31 06:20:00,
2013-07-31 01:25:00,72.5,71.3,29.97,SE,146,0.0,3.0,96,0.00,,,0.00,Wunderground v.1.15,2013-07-31 06:25:00,
2013-07-31 01:30:00,72.3,71.1,29.97,SE,146,0.0,3.0,96,0.00,,,0.00,Wunderground v.1.15,2013-07-31 06:30:00,
2013-07-31 01:35:00,72.1,70.9,29.97,SE,146,0.0,3.0,96,0.00,,,0.00,Wunderground v.1.15,2013-07-31 06:35:00,
2013-07-31 01:40:00,72.0,70.8,29.97,SE,146,0.0,3.0,96,0.00,,,0.00,Wunderground v.1.15,2013-07-31 06:40:00,
2013-07-31 01:45:00,71.8,70.6,29.97,SE,146,0.0,3.0,96,0.00,,,0.00,Wunderground v.1.15,2013-07-31 06:45:00,
2013-07-31 01:50:00,71.8,70.6,29.97,SE,146,0.0,3.0,96,0.00,,,0.00,Wunderground v.1.15,2013-07-31 06:50:00,
2013-07-31 01:55:00,71.8,70.6,29.97,SE,146,0.0,3.0,96,0.00,,,0.00,Wunderground v.1.15,2013-07-31 06:55:00,
2013-07-31 02:00:00,71.6,70.4,29.97,SE,146,0.0,3.0,96,0.00,,,0.00,Wunderground v.1.15,2013-07-31 07:00:00,
2013-07-31 02:05:00,71.6,70.4,29.97,SE,146,0.0,3.0,96,0.00,,,0.00,Wunderground v.1.15,2013-07-31 07:05:00,
2013-07-31 02:10:00,71.6,70.4,29.97,SE,146,0.0,3.0,96,0.00,,,0.00,Wunderground v.1.15,2013-07-31 07:10:00,
2013-07-31 02:15:00,71.5,70.3,29.97,SE,146,0.0,3.0,96,0.00,,,0.00,Wunderground v.1.15,2013-07-31 07:15:00,
2013-07-31 02:20:00,71.5,70.3,29.97,SE,146,0.0,3.0,96,0.00,,,0.00,Wunderground v.1.15,2013-07-31 07:20:00,
2013-07-31 02:25:00,71.5,70.3,29.97,SE,146,0.0,3.0,96,0.00,,,0.00,Wunderground v.1.15,2013-07-31 07:25:00,
2013-07-31 02:30:00,71.5,70.3,29.97,SE,146,0.0,3.0,96,0.00,,,0.00,Wunderground v.1.15,2013-07-31 07:30:00,
2013-07-31 02:35:00,71.8,70.9,29.97,SE,146,0.0,3.0,97,0.00,,,0.00,Wunderground v.1.15,2013-07-31 07:35:00,
2013-07-31 02:40:00,72.0,71.1,29.97,SE,146,0.0,3.0,97,0.00,,,0.00,Wunderground v.1.15,2013-07-31 07:40:00,
2013-07-31 02:45:00,72.0,71.1,29.97,SE,146,0.0,3.0,97,0.00,,,0.00,Wunderground v.1.15,2013-07-31 07:45:00,
2013-07-31 02:50:00,72.0,71.1,29.97,SE,146,0.0,3.0,97,0.00,,,0.00,Wunderground v.1.15,2013-07-31 07:50:00,
2013-07-31 02:55:00,72.1,71.2,29.97,SE,146,0.0,3.0,97,0.00,,,0.00,Wunderground v.1.15,2013-07-31 07:55:00,
2013-07-31 03:00:00,72.0,71.1,29.97,SE,146,0.0,3.0,97,0.00,,,0.00,Wunderground v.1.15,2013-07-31 08:00:00,
2013-07-31 03:05:00,71.8,70.9,29.96,SE,146,0.0,3.0,97,0.00,,,0.00,Wunderground v.1.15,2013-07-31 08:05:00,
2013-07-31 03:10:00,71.8,70.9,29.96,SE,146,0.0,3.0,97,0.00,,,0.00,Wunderground v.1.15,2013-07-31 08:10:00,
2013-07-31 03:15:00,71.6,70.7,29.96,SE,146,0.0,3.0,97,0.00,,,0.00,Wunderground v.1.15,2013-07-31 08:15:00,
2013-07-31 03:20:00,71.3,70.1,29.95,SE,146,0.0,3.0,96,0.00,,,0.00,Wunderground v.1.15,2013-07-31 08:20:00,
2013-07-31 03:25:00,70.9,69.7,29.95,SE,146,0.0,3.0,96,0.00,,,0.00,Wunderground v.1.15,2013-07-31 08:25:00,
2013-07-31 03:30:00,70.9,69.7,29.95,SE,146,0.0,3.0,96,0.00,,,0.00,Wunderground v.1.15,2013-07-31 08:30:00,
2013-07-31 03:35:00,70.8,69.9,29.95,SE,146,0.0,3.0,97,0.00,,,0.00,Wunderground v.1.15,2013-07-31 08:35:00,
2013-07-31 03:40:00,70.6,69.7,29.95,SE,146,0.0,3.0,97,0.00,,,0.00,Wunderground v.1.15,2013-07-31 08:40:00,
2013-07-31 03:45:00,70.4,69.5,29.95,SE,146,0.0,3.0,97,0.00,,,0.00,Wunderground v.1.15,2013-07-31 08:45:00,
2013-07-31 03:50:00,70.4,69.5,29.95,SE,146,0.0,3.0,97,0.00,,,0.00,Wunderground v.1.15,2013-07-31 08:50:00,
2013-07-31 03:55:00,70.3,69.4,29.95,SE,146,0.0,3.0,97,0.00,,,0.00,Wunderground v.1.15,2013-07-31 08:55:00,
2013-07-31 04:00:00,70.3,69.4,29.95,SE,146,0.0,3.0,97,0.00,,,0.00,Wunderground v.1.15,2013-07-31 09:00:00,
2013-07-31 04:05:00,70.1,69.2,29.96,SE,146,0.0,3.0,97,0.00,,,0.00,Wunderground v.1.15,2013-07-31 09:05:00,
2013-07-31 04:20:00,69.8,68.9,29.96,SE,146,0.0,3.0,97,0.00,,,0.00,Wunderground v.1.15,2013-07-31 09:20:00,
2013-07-31 04:25:00,69.6,68.7,29.96,SE,146,0.0,3.0,97,0.00,,,0.00,Wunderground v.1.15,2013-07-31 09:25:00,
2013-07-31 04:35:00,69.9,69.0,29.97,SE,146,0.0,3.0,97,0.00,,,0.00,Wunderground v.1.15,2013-07-31 09:35:00,
2013-07-31 04:40:00,69.9,69.0,29.97,SE,146,0.0,3.0,97,0.00,,,0.00,Wunderground v.1.15,2013-07-31 09:40:00,
2013-07-31 04:45:00,70.1,69.2,29.97,SE,146,0.0,3.0,97,0.00,,,0.00,Wunderground v.1.15,2013-07-31 09:45:00,
2013-07-31 04:50:00,70.1,69.2,29.98,SE,146,0.0,3.0,97,0.00,,,0.00,Wunderground v.1.15,2013-07-31 09:50:00,
2013-07-31 05:05:00,70.1,69.2,29.98,SE,146,0.0,3.0,97,0.00,,,0.00,Wunderground v.1.15,2013-07-31 10:05:00,
2013-07-31 05:09:00,70.1,69.2,29.96,SE,146,0.0,3.0,97,0.00,,,0.00,Wunderground v.1.15,2013-07-31 10:09:00,
2013-07-31 05:10:00,70.3,69.4,29.98,SE,146,0.0,3.0,97,0.00,,,0.00,Wunderground v.1.15,2013-07-31 10:10:00,
2013-07-31 05:14:00,69.9,69.0,29.96,SE,146,0.0,3.0,97,0.00,,,0.00,Wunderground v.1.15,2013-07-31 10:14:00,
2013-07-31 05:15:00,70.3,69.4,29.98,SE,146,0.0,3.0,97,0.00,,,0.00,Wunderground v.1.15,2013-07-31 10:15:00,
2013-07-31 05:20:00,70.4,69.5,29.99,SE,146,0.0,3.0,97,0.00,,,0.00,Wunderground v.1.15,2013-07-31 10:20:00,
2013-07-31 05:25:00,70.8,69.9,29.99,SE,146,0.0,3.0,97,0.00,,,0.00,Wunderground v.1.15,2013-07-31 10:25:00,
2013-07-31 05:29:00,69.8,68.9,29.96,SE,146,0.0,3.0,97,0.00,,,0.00,Wunderground v.1.15,2013-07-31 10:29:00,
2013-07-31 05:30:00,71.1,70.2,29.99,SE,146,0.0,3.0,97,0.00,,,0.00,Wunderground v.1.15,2013-07-31 10:30:00,
2013-07-31 05:35:00,71.1,70.2,29.99,SE,146,0.0,3.0,97,0.00,,,0.00,Wunderground v.1.15,2013-07-31 10:35:00,
2013-07-31 05:40:00,71.3,70.4,29.99,SE,146,0.0,3.0,97,0.00,,,0.00,Wunderground v.1.15,2013-07-31 10:40:00,
2013-07-31 05:54:00,70.3,69.4,29.98,SE,146,0.0,3.0,97,0.00,,,0.00,Wunderground v.1.15,2013-07-31 10:54:00,
2013-07-31 05:55:00,71.8,70.9,30.00,SE,146,0.0,3.0,97,0.00,,,0.00,Wunderground v.1.15,2013-07-31 10:55:00,
2013-07-31 05:59:00,70.3,69.4,29.98,SE,146,0.0,3.0,97,0.00,,,0.00,Wunderground v.1.15,2013-07-31 10:59:00,
2013-07-31 06:00:00,72.1,71.2,30.00,SE,146,0.0,3.0,97,0.00,,,0.00,Wunderground v.1.15,2013-07-31 11:00:00,
2013-07-31 06:05:00,72.1,71.2,30.00,SE,146,0.0,3.0,97,0.00,,,0.00,Wunderground v.1.15,2013-07-31 11:05:00,
2013-07-31 06:10:00,72.3,71.4,30.00,SE,146,0.0,3.0,97,0.00,,,0.00,Wunderground v.1.15,2013-07-31 11:10:00,
2013-07-31 06:15:00,72.3,71.4,30.00,SE,146,0.0,3.0,97,0.00,,,0.00,Wunderground v.1.15,2013-07-31 11:15:00,
2013-07-31 06:20:00,72.5,71.6,30.00,SE,146,0.0,3.0,97,0.00,,,0.00,Wunderground v.1.15,2013-07-31 11:20:00,
2013-07-31 06:40:00,73.3,72.4,30.00,SE,146,0.0,3.0,97,0.00,,,0.00,Wunderground v.1.15,2013-07-31 11:40:00,
2013-07-31 06:44:00,71.5,70.6,29.99,SE,146,0.0,3.0,97,0.00,,,0.00,Wunderground v.1.15,2013-07-31 11:44:00,
2013-07-31 06:45:00,73.5,72.6,30.00,SE,146,0.0,3.0,97,0.00,,,0.00,Wunderground v.1.15,2013-07-31 11:45:00,
2013-07-31 06:55:00,73.7,72.8,30.00,SE,146,0.0,3.0,97,0.00,,,0.00,Wunderground v.1.15,2013-07-31 11:55:00,
2013-07-31 07:15:00,74.2,73.3,29.99,SE,146,0.0,3.0,97,0.00,,,0.00,Wunderground v.1.15,2013-07-31 12:15:00,
2013-07-31 07:24:00,72.7,71.8,30.00,SE,146,0.0,3.0,97,0.00,,,0.00,Wunderground v.1.15,2013-07-31 12:24:00,
2013-07-31 07:34:00,73.2,72.3,30.00,SE,146,0.0,3.0,97,0.00,,,0.00,Wunderground v.1.15,2013-07-31 12:34:00,
2013-07-31 07:49:00,73.7,72.8,30.00,SE,146,0.0,3.0,97,0.00,,,0.00,Wunderground v.1.15,2013-07-31 12:49:00,
2013-07-31 07:50:00,74.9,74.0,30.00,SE,146,0.0,3.0,97,0.00,,,0.00,Wunderground v.1.15,2013-07-31 12:50:00,
2013-07-31 07:59:00,73.9,73.0,30.00,SE,146,0.0,3.0,97,0.00,,,0.00,Wunderground v.1.15,2013-07-31 12:59:00,
2013-07-31 08:04:00,73.9,73.0,29.99,SE,146,0.0,3.0,97,0.00,,,0.00,Wunderground v.1.15,2013-07-31 13:04:00,
2013-07-31 08:19:00,74.2,73.3,30.00,SE,146,0.0,3.0,97,0.00,,,0.00,Wunderground v.1.15,2013-07-31 13:19:00,
2013-07-31 08:20:00,75.3,74.4,30.00,North,355,0.0,3.0,97,0.00,,,0.00,Wunderground v.1.15,2013-07-31 13:20:00,
2013-07-31 08:29:00,74.4,73.5,30.00,SE,146,0.0,3.0,97,0.00,,,0.00,Wunderground v.1.15,2013-07-31 13:29:00,
2013-07-31 08:39:00,74.9,74.0,30.00,SE,146,0.0,3.0,97,0.00,,,0.00,Wunderground v.1.15,2013-07-31 13:39:00,
2013-07-31 08:40:00,76.0,75.1,30.00,North,355,0.0,3.0,97,0.00,,,0.00,Wunderground v.1.15,2013-07-31 13:40:00,
2013-07-31 08:44:00,74.9,74.0,30.00,SE,146,0.0,3.0,97,0.00,,,0.00,Wunderground v.1.15,2013-07-31 13:44:00,
2013-07-31 08:54:00,74.9,74.0,30.00,SE,146,0.0,3.0,97,0.00,,,0.00,Wunderground v.1.15,2013-07-31 13:54:00,
2013-07-31 09:04:00,74.9,74.0,30.00,SE,146,0.0,3.0,97,0.00,,,0.00,Wunderground v.1.15,2013-07-31 14:04:00,
2013-07-31 09:09:00,74.9,74.0,30.00,SE,146,0.0,3.0,97,0.00,,,0.00,Wunderground v.1.15,2013-07-31 14:09:00,
2013-07-31 09:24:00,75.6,74.7,30.00,North,355,1.0,3.0,97,0.00,,,0.00,Wunderground v.1.15,2013-07-31 14:24:00,
2013-07-31 09:29:00,75.6,74.7,30.00,North,355,1.0,1.0,97,0.00,,,0.00,Wunderground v.1.15,2013-07-31 14:29:00,
2013-07-31 09:34:00,75.8,74.9,30.00,North,355,0.0,3.0,97,0.00,,,0.00,Wunderground v.1.15,2013-07-31 14:34:00,
2013-07-31 09:44:00,76.5,75.6,30.00,North,355,1.0,3.0,97,0.00,,,0.00,Wunderground v.1.15,2013-07-31 14:44:00,
2013-07-31 09:49:00,76.5,75.6,30.01,NNW,348,1.0,3.0,97,0.00,,,0.00,Wunderground v.1.15,2013-07-31 14:49:00,
2013-07-31 09:59:00,77.4,76.2,30.01,NNE,16,1.0,1.0,96,0.00,,,0.00,Wunderground v.1.15,2013-07-31 14:59:00,
2013-07-31 10:04:00,77.2,76.0,30.01,North,351,1.0,2.0,96,0.00,,,0.00,Wunderground v.1.15,2013-07-31 15:04:00,
2013-07-31 10:14:00,76.7,74.8,30.01,NNW,340,1.0,6.0,94,0.00,,,0.00,Wunderground v.1.15,2013-07-31 15:14:00,
2013-07-31 10:24:00,76.7,74.2,30.02,NNW,343,5.0,9.0,92,0.00,,,0.00,Wunderground v.1.15,2013-07-31 15:24:00,
2013-07-31 10:29:00,77.0,73.8,30.02,NNW,340,4.0,6.0,90,0.00,,,0.00,Wunderground v.1.15,2013-07-31 15:29:00,
2013-07-31 10:39:00,78.1,73.6,30.01,NNE,20,2.0,3.0,86,0.00,,,0.00,Wunderground v.1.15,2013-07-31 15:39:00,
2013-07-31 10:49:00,78.8,73.6,30.01,NNW,339,3.0,6.0,84,0.00,,,0.00,Wunderground v.1.15,2013-07-31 15:49:00,
2013-07-31 10:54:00,79.0,73.0,30.01,North,360,4.0,6.0,82,0.00,,,0.00,Wunderground v.1.15,2013-07-31 15:54:00,
2013-07-31 10:59:00,78.8,72.8,30.01,NNW,348,4.0,6.0,82,0.00,,,0.00,Wunderground v.1.15,2013-07-31 15:59:00,
2013-07-31 11:09:00,79.6,72.9,30.01,NNW,344,3.0,5.0,80,0.00,,,0.00,Wunderground v.1.15,2013-07-31 16:09:00,
2013-07-31 11:14:00,79.6,72.1,30.01,NNW,344,4.0,5.0,78,0.00,,,0.00,Wunderground v.1.15,2013-07-31 16:14:00,
2013-07-31 11:24:00,79.6,72.5,30.01,North,355,3.0,5.0,79,0.00,,,0.00,Wunderground v.1.15,2013-07-31 16:24:00,
2013-07-31 11:29:00,79.9,72.4,30.01,NNE,16,2.0,2.0,78,0.00,,,0.00,Wunderground v.1.15,2013-07-31 16:29:00,
2013-07-31 11:39:00,80.5,72.6,30.00,North,349,2.0,5.0,77,0.00,,,0.00,Wunderground v.1.15,2013-07-31 16:39:00,
2013-07-31 11:44:00,80.7,72.0,30.00,North,9,2.0,5.0,75,0.00,,,0.00,Wunderground v.1.15,2013-07-31 16:44:00,
2013-07-31 11:54:00,80.9,72.2,30.00,NNE,19,1.0,3.0,75,0.00,,,0.01,Wunderground v.1.15,2013-07-31 16:54:00,
2013-07-31 12:05:00,81.2,72.5,30.00,North,355,3.0,4.0,75,0.00,,,0.01,Wunderground v.1.15,2013-07-31 17:05:00,
2013-07-31 12:14:00,81.4,73.1,30.00,North,360,4.0,4.0,76,0.00,,,0.01,Wunderground v.1.15,2013-07-31 17:14:00,
2013-07-31 12:24:00,80.1,72.2,30.00,North,355,3.0,5.0,77,0.00,,,0.01,Wunderground v.1.15,2013-07-31 17:24:00,
2013-07-31 12:29:00,80.9,73.8,30.00,NNE,32,2.0,3.0,79,0.00,,,0.01,Wunderground v.1.15,2013-07-31 17:29:00,
2013-07-31 12:39:00,81.6,71.3,30.00,NNW,346,4.0,4.0,71,0.00,,,0.01,Wunderground v.1.15,2013-07-31 17:39:00,
2013-07-31 12:49:00,80.9,71.8,30.00,North,351,3.0,11.0,74,0.00,,,0.01,Wunderground v.1.15,2013-07-31 17:49:00,
2013-07-31 12:59:00,79.9,71.3,30.00,NNW,337,4.0,4.0,75,0.00,,,0.01,Wunderground v.1.15,2013-07-31 17:59:00,
2013-07-31 13:04:00,80.3,72.0,30.00,North,350,2.0,6.0,76,0.00,,,0.01,Wunderground v.1.15,2013-07-31 18:04:00,
2013-07-31 13:14:00,82.2,72.3,30.00,North,355,4.0,7.0,72,0.00,,,0.01,Wunderground v.1.15,2013-07-31 18:14:00,
2013-07-31 13:19:00,82.0,71.7,29.99,North,5,5.0,5.0,71,0.00,,,0.01,Wunderground v.1.15,2013-07-31 18:19:00,
2013-07-31 13:29:00,81.8,72.7,29.99,NNW,348,3.0,6.0,74,0.00,,,0.01,Wunderground v.1.15,2013-07-31 18:29:00,
2013-07-31 13:39:00,83.0,72.2,29.99,North,355,4.0,6.0,70,0.00,,,0.01,Wunderground v.1.15,2013-07-31 18:39:00,
2013-07-31 13:44:00,83.4,72.2,29.99,North,355,3.0,6.0,69,0.00,,,0.01,Wunderground v.1.15,2013-07-31 18:44:00,
2013-07-31 13:54:00,83.8,71.2,29.99,NNW,347,4.0,7.0,66,0.00,,,0.01,Wunderground v.1.15,2013-07-31 18:54:00,
2013-07-31 14:04:00,84.5,71.9,29.98,NNW,341,2.0,6.0,66,0.00,,,0.01,Wunderground v.1.15,2013-07-31 19:04:00,
2013-07-31 14:09:00,84.5,71.4,29.98,North,360,3.0,6.0,65,0.00,,,0.01,Wunderground v.1.15,2013-07-31 19:09:00,
2013-07-31 14:19:00,84.7,70.7,29.99,NNW,344,4.0,9.0,63,0.00,,,0.01,Wunderground v.1.15,2013-07-31 19:19:00,
2013-07-31 14:24:00,84.5,72.3,29.99,NNE,17,4.0,9.0,67,0.00,,,0.01,Wunderground v.1.15,2013-07-31 19:24:00,
2013-07-31 14:34:00,84.1,70.6,29.99,NNW,345,3.0,6.0,64,0.00,,,0.01,Wunderground v.1.15,2013-07-31 19:34:00,
2013-07-31 14:44:00,83.4,70.4,29.99,NNW,348,4.0,6.0,65,0.00,,,0.01,Wunderground v.1.15,2013-07-31 19:44:00,
2013-07-31 14:49:00,83.0,69.6,29.99,NNE,23,4.0,4.0,64,0.00,,,0.01,Wunderground v.1.15,2013-07-31 19:49:00,
2013-07-31 14:59:00,83.0,70.5,29.99,NNW,348,3.0,3.0,66,0.00,,,0.01,Wunderground v.1.15,2013-07-31 19:59:00,
2013-07-31 15:09:00,83.6,69.2,29.99,North,5,4.0,6.0,62,0.00,,,0.01,Wunderground v.1.15,2013-07-31 20:09:00,
2013-07-31 15:14:00,83.8,69.4,29.99,North,360,4.0,6.0,62,0.00,,,0.01,Wunderground v.1.15,2013-07-31 20:14:00,
2013-07-31 15:24:00,84.1,71.1,29.98,NNW,342,4.0,7.0,65,0.00,,,0.01,Wunderground v.1.15,2013-07-31 20:24:00,
2013-07-31 15:34:00,83.8,69.9,29.98,North,355,5.0,6.0,63,0.00,,,0.01,Wunderground v.1.15,2013-07-31 20:34:00,
2013-07-31 15:39:00,83.4,69.5,29.98,NNW,345,5.0,6.0,63,0.00,,,0.01,Wunderground v.1.15,2013-07-31 20:39:00,
2013-07-31 15:49:00,83.0,70.0,29.98,North,349,3.0,6.0,65,0.00,,,0.01,Wunderground v.1.15,2013-07-31 20:49:00,
2013-07-31 15:54:00,82.6,69.6,29.98,NNW,341,4.0,6.0,65,0.00,,,0.01,Wunderground v.1.15,2013-07-31 20:54:00,
2013-07-31 15:59:00,83.2,70.2,29.98,North,350,3.0,6.0,65,0.00,,,0.01,Wunderground v.1.15,2013-07-31 20:59:00,
2013-07-31 16:04:00,83.8,68.9,29.98,North,5,4.0,6.0,61,0.00,,,0.01,Wunderground v.1.15,2013-07-31 21:04:00,
2013-07-31 16:14:00,83.8,70.3,29.98,NNW,348,3.0,9.0,64,0.00,,,0.01,Wunderground v.1.15,2013-07-31 21:14:00,
2013-07-31 16:24:00,83.6,69.7,29.97,North,355,4.0,6.0,63,0.00,,,0.01,Wunderground v.1.15,2013-07-31 21:24:00,
2013-07-31 16:34:00,82.8,69.8,29.97,North,349,4.0,7.0,65,0.00,,,0.01,Wunderground v.1.15,2013-07-31 21:34:00,
2013-07-31 16:39:00,82.6,69.2,29.97,NNW,344,4.0,4.0,64,0.00,,,0.01,Wunderground v.1.15,2013-07-31 21:39:00,
2013-07-31 16:44:00,82.8,68.4,29.97,NNW,348,4.0,5.0,62,0.00,,,0.01,Wunderground v.1.15,2013-07-31 21:44:00,
2013-07-31 16:54:00,83.2,69.3,29.96,North,355,3.0,6.0,63,0.00,,,0.01,Wunderground v.1.15,2013-07-31 21:54:00,
2013-07-31 17:04:00,83.2,67.4,29.95,NNE,32,2.0,6.0,59,0.00,,,0.01,Wunderground v.1.15,2013-07-31 22:04:00,
2013-07-31 17:09:00,83.2,67.9,29.95,NNE,26,3.0,6.0,60,0.00,,,0.01,Wunderground v.1.15,2013-07-31 22:09:00,
2013-07-31 17:14:00,83.4,68.1,29.95,NNW,340,3.0,6.0,60,0.00,,,0.01,Wunderground v.1.15,2013-07-31 22:14:00,
2013-07-31 17:24:00,83.4,68.5,29.95,NNW,348,3.0,6.0,61,0.00,,,0.01,Wunderground v.1.15,2013-07-31 22:24:00,
2013-07-31 17:29:00,83.4,69.5,29.95,NNW,340,2.0,2.0,63,0.00,,,0.01,Wunderground v.1.15,2013-07-31 22:29:00,
2013-07-31 17:39:00,83.2,68.8,29.95,North,5,3.0,3.0,62,0.00,,,0.01,Wunderground v.1.15,2013-07-31 22:39:00,
2013-07-31 17:44:00,83.2,69.3,29.95,NNW,338,2.0,6.0,63,0.00,,,0.01,Wunderground v.1.15,2013-07-31 22:44:00,
2013-07-31 17:54:00,82.6,69.2,29.95,NNW,341,2.0,6.0,64,0.00,,,0.01,Wunderground v.1.15,2013-07-31 22:54:00,
2013-07-31 17:59:00,82.6,69.2,29.95,NNW,344,2.0,6.0,64,0.00,,,0.01,Wunderground v.1.15,2013-07-31 22:59:00,
2013-07-31 18:09:00,82.6,69.6,29.95,NNE,19,3.0,3.0,65,0.00,,,0.01,Wunderground v.1.15,2013-07-31 23:09:00,
2013-07-31 18:19:00,82.4,68.1,29.94,North,355,2.0,2.0,62,0.00,,,0.01,Wunderground v.1.15,2013-07-31 23:19:00,
2013-07-31 18:24:00,82.2,67.9,29.94,North,355,2.0,3.0,62,0.00,,,0.01,Wunderground v.1.15,2013-07-31 23:24:00,
2013-07-31 18:34:00,81.6,66.8,29.94,NNW,340,3.0,6.0,61,0.00,,,0.01,Wunderground v.1.15,2013-07-31 23:34:00,
2013-07-31 18:44:00,81.4,67.1,29.94,North,355,3.0,6.0,62,0.00,,,0.01,Wunderground v.1.15,2013-07-31 23:44:00,
2013-07-31 18:49:00,81.4,67.6,29.95,NNW,348,3.0,6.0,63,0.00,,,0.01,Wunderground v.1.15,2013-07-31 23:49:00,
2013-07-31 18:59:00,81.2,68.3,29.95,NNW,343,2.0,2.0,65,0.00,,,0.01,Wunderground v.1.15,2013-07-31 23:59:00,
2013-07-31 19:04:00,81.2,68.3,29.95,North,5,1.0,6.0,65,0.00,,,0.01,Wunderground v.1.15,2013-08-01 00:04:00,
2013-07-31 19:09:00,81.1,68.7,29.95,NNW,348,1.0,1.0,66,0.00,,,0.01,Wunderground v.1.15,2013-08-01 00:09:00,
2013-07-31 19:19:00,80.7,68.3,29.95,NNE,17,0.0,6.0,66,0.00,,,0.01,Wunderground v.1.15,2013-08-01 00:19:00,
2013-07-31 19:29:00,80.1,68.6,29.95,North,355,0.0,6.0,68,0.00,,,0.01,Wunderground v.1.15,2013-08-01 00:29:00,
2013-07-31 19:34:00,79.8,68.7,29.95,North,355,0.0,6.0,69,0.00,,,0.01,Wunderground v.1.15,2013-08-01 00:34:00,
2013-07-31 19:44:00,79.0,68.4,29.95,North,355,0.0,6.0,70,0.00,,,0.01,Wunderground v.1.15,2013-08-01 00:44:00,
2013-07-31 19:54:00,78.3,68.5,29.96,North,355,0.0,6.0,72,0.00,,,0.01,Wunderground v.1.15,2013-08-01 00:54:00,
2013-07-31 19:59:00,77.9,68.5,29.96,North,355,0.0,6.0,73,0.00,,,0.01,Wunderground v.1.15,2013-08-01 00:59:00,
2013-07-31 20:09:00,77.0,68.5,29.97,North,355,0.0,6.0,75,0.00,,,0.01,Wunderground v.1.15,2013-08-01 01:09:00,
2013-07-31 20:19:00,76.1,68.0,29.97,North,355,0.0,6.0,76,0.00,,,0.01,Wunderground v.1.15,2013-08-01 01:19:00,
2013-07-31 20:24:00,75.8,68.1,29.97,North,355,0.0,6.0,77,0.00,,,0.01,Wunderground v.1.15,2013-08-01 01:24:00,
2013-07-31 20:29:00,75.4,67.7,29.97,North,355,0.0,6.0,77,0.00,,,0.01,Wunderground v.1.15,2013-08-01 01:29:00,
2013-07-31 20:39:00,74.9,67.9,29.98,North,355,0.0,6.0,79,0.00,,,0.01,Wunderground v.1.15,2013-08-01 01:39:00,
2013-07-31 20:49:00,74.2,67.6,29.98,North,355,0.0,6.0,80,0.00,,,0.01,Wunderground v.1.15,2013-08-01 01:49:00,
2013-07-31 20:59:00,73.3,67.5,29.98,North,355,0.0,6.0,82,0.00,,,0.01,Wunderground v.1.15,2013-08-01 01:59:00,
2013-07-31 21:09:00,72.8,67.3,29.99,North,355,0.0,6.0,83,0.00,,,0.01,Wunderground v.1.15,2013-08-01 02:09:00,
2013-07-31 21:19:00,72.3,67.5,29.99,North,355,0.0,6.0,85,0.00,,,0.01,Wunderground v.1.15,2013-08-01 02:19:00,
2013-07-31 21:24:00,72.0,67.2,29.99,North,355,0.0,6.0,85,0.00,,,0.01,Wunderground v.1.15,2013-08-01 02:24:00,
2013-07-31 21:34:00,71.3,66.9,29.99,North,355,0.0,6.0,86,0.00,,,0.01,Wunderground v.1.15,2013-08-01 02:34:00,
2013-07-31 21:39:00,71.1,67.0,29.99,North,355,0.0,6.0,87,0.00,,,0.01,Wunderground v.1.15,2013-08-01 02:39:00,
2013-07-31 21:44:00,70.8,66.7,29.99,North,355,0.0,6.0,87,0.00,,,0.01,Wunderground v.1.15,2013-08-01 02:44:00,
2013-07-31 21:49:00,70.6,66.9,30.00,North,355,0.0,6.0,88,0.00,,,0.01,Wunderground v.1.15,2013-08-01 02:49:00,
2013-07-31 21:59:00,70.3,66.9,30.00,North,355,0.0,6.0,89,0.00,,,0.01,Wunderground v.1.15,2013-08-01 02:59:00,
2013-07-31 22:05:00,68.6,66.2,30.01,North,355,0.0,6.0,92,0.00,,,0.01,Wunderground v.1.15,2013-08-01 03:05:00,
2013-07-31 22:09:00,70.1,66.7,30.01,North,355,0.0,6.0,89,0.00,,,0.01,Wunderground v.1.15,2013-08-01 03:09:00,
2013-07-31 22:10:00,68.4,66.0,30.01,North,355,0.0,6.0,92,0.00,,,0.01,Wunderground v.1.15,2013-08-01 03:10:00,
2013-07-31 22:14:00,70.1,67.0,30.01,North,355,0.0,6.0,90,0.00,,,0.01,Wunderground v.1.15,2013-08-01 03:14:00,
2013-07-31 22:15:00,68.3,65.9,30.01,North,355,0.0,6.0,92,0.00,,,0.01,Wunderground v.1.15,2013-08-01 03:15:00,
2013-07-31 22:20:00,68.3,65.9,30.02,North,355,0.0,6.0,92,0.00,,,0.01,Wunderground v.1.15,2013-08-01 03:20:00,
2013-07-31 22:24:00,69.9,66.8,30.00,North,355,0.0,6.0,90,0.00,,,0.01,Wunderground v.1.15,2013-08-01 03:24:00,
2013-07-31 22:25:00,68.3,65.9,30.02,North,355,0.0,6.0,92,0.00,,,0.01,Wunderground v.1.15,2013-08-01 03:25:00,
2013-07-31 22:29:00,69.6,66.5,30.00,North,355,0.0,6.0,90,0.00,,,0.01,Wunderground v.1.15,2013-08-01 03:29:00,
2013-07-31 22:30:00,68.4,66.3,30.02,North,355,0.0,6.0,93,0.00,,,0.01,Wunderground v.1.15,2013-08-01 03:30:00,
2013-07-31 22:34:00,69.3,66.2,30.00,North,355,0.0,6.0,90,0.00,,,0.01,Wunderground v.1.15,2013-08-01 03:34:00,
2013-07-31 22:35:00,68.4,66.3,30.02,North,355,0.0,6.0,93,0.00,,,0.01,Wunderground v.1.15,2013-08-01 03:35:00,
2013-07-31 22:40:00,68.4,66.3,30.02,North,355,0.0,6.0,93,0.00,,,0.01,Wunderground v.1.15,2013-08-01 03:40:00,
2013-07-31 22:44:00,68.9,65.8,30.00,North,355,0.0,6.0,90,0.00,,,0.01,Wunderground v.1.15,2013-08-01 03:44:00,
2013-07-31 22:45:00,68.4,66.3,30.02,North,355,0.0,6.0,93,0.00,,,0.01,Wunderground v.1.15,2013-08-01 03:45:00,
2013-07-31 22:49:00,68.9,66.2,30.01,North,355,0.0,6.0,91,0.00,,,0.01,Wunderground v.1.15,2013-08-01 03:49:00,
2013-07-31 22:50:00,68.4,66.3,30.02,North,355,0.0,6.0,93,0.00,,,0.01,Wunderground v.1.15,2013-08-01 03:50:00,
2013-07-31 22:55:00,68.3,66.2,30.02,North,355,0.0,6.0,93,0.00,,,0.01,Wunderground v.1.15,2013-08-01 03:55:00,
2013-07-31 22:59:00,68.8,66.1,30.01,North,355,0.0,6.0,91,0.00,,,0.01,Wunderground v.1.15,2013-08-01 03:59:00,
2013-07-31 23:00:00,68.3,66.2,30.02,North,355,0.0,6.0,93,0.00,,,0.01,Wunderground v.1.15,2013-08-01 04:00:00,
2013-07-31 23:05:00,68.1,66.0,30.02,North,355,0.0,6.0,93,0.00,,,0.00,Wunderground v.1.15,2013-08-01 04:05:00,
2013-07-31 23:10:00,67.9,65.8,30.02,North,355,0.0,6.0,93,0.00,,,0.00,Wunderground v.1.15,2013-08-01 04:10:00,
2013-07-31 23:15:00,67.9,65.8,30.02,North,355,0.0,6.0,93,0.00,,,0.00,Wunderground v.1.15,2013-08-01 04:15:00,
2013-07-31 23:20:00,67.8,65.7,30.02,North,355,0.0,6.0,93,0.00,,,0.00,Wunderground v.1.15,2013-08-01 04:20:00,
2013-07-31 23:25:00,67.8,65.7,30.02,North,355,0.0,6.0,93,0.00,,,0.00,Wunderground v.1.15,2013-08-01 04:25:00,
2013-07-31 23:30:00,67.8,66.0,30.02,North,355,0.0,6.0,94,0.00,,,0.00,Wunderground v.1.15,2013-08-01 04:30:00,
2013-07-31 23:35:00,67.6,65.5,30.02,North,355,0.0,6.0,93,0.00,,,0.00,Wunderground v.1.15,2013-08-01 04:35:00,
2013-07-31 23:40:00,67.4,65.3,30.02,North,355,0.0,6.0,93,0.00,,,0.00,Wunderground v.1.15,2013-08-01 04:40:00,
2013-07-31 23:45:00,67.3,65.2,30.02,North,355,0.0,6.0,93,0.00,,,0.00,Wunderground v.1.15,2013-08-01 04:45:00,
2013-07-31 23:50:00,67.1,65.3,30.02,North,355,0.0,6.0,94,0.00,,,0.00,Wunderground v.1.15,2013-08-01 04:50:00,
2013-07-31 23:55:00,67.1,65.3,30.02,North,355,0.0,6.0,94,0.00,,,0.00,Wunderground v.1.15,2013-08-01 04:55:00,